sensor_id;sensor_type;location;lat;lon;timestamp;P1;durP1;ratioP1;P2;durP2;ratioP2
31768;SDS011;18342;52.132;21.048;2022-11-14T00:00:24;26.20;;;14.70;;
31768;SDS011;18342;52.132;21.048;2022-11-14T00:02:51;26.33;;;14.17;;
31768;SDS011;18342;52.132;21.048;2022-11-14T00:05:17;28.83;;;14.63;;
31768;SDS011;18342;52.132;21.048;2022-11-14T00:07:43;23.60;;;13.73;;
31768;SDS011;18342;52.132;21.048;2022-11-14T00:10:10;25.23;;;14.37;;
31768;SDS011;18342;52.132;21.048;2022-11-14T00:12:36;27.70;;;14.63;;
31768;SDS011;18342;52.132;21.048;2022-11-14T00:15:02;26.17;;;14.67;;
31768;SDS011;18342;52.132;21.048;2022-11-14T00:17:28;26.67;;;14.47;;
31768;SDS011;18342;52.132;21.048;2022-11-14T00:19:53;27.97;;;15.50;;
31768;SDS011;18342;52.132;21.048;2022-11-14T00:22:19;27.90;;;14.90;;
31768;SDS011;18342;52.132;21.048;2022-11-14T00:24:45;27.47;;;14.93;;
31768;SDS011;18342;52.132;21.048;2022-11-14T00:27:10;24.20;;;14.13;;
31768;SDS011;18342;52.132;21.048;2022-11-14T00:29:36;26.13;;;13.90;;
31768;SDS011;18342;52.132;21.048;2022-11-14T00:32:02;27.73;;;14.03;;
31768;SDS011;18342;52.132;21.048;2022-11-14T00:34:28;26.17;;;14.40;;
31768;SDS011;18342;52.132;21.048;2022-11-14T00:36:54;27.10;;;14.43;;
31768;SDS011;18342;52.132;21.048;2022-11-14T00:39:20;24.90;;;13.10;;
31768;SDS011;18342;52.132;21.048;2022-11-14T00:41:45;25.93;;;13.53;;
31768;SDS011;18342;52.132;21.048;2022-11-14T00:44:11;25.77;;;13.00;;
31768;SDS011;18342;52.132;21.048;2022-11-14T00:46:36;24.47;;;13.27;;
31768;SDS011;18342;52.132;21.048;2022-11-14T00:49:02;24.03;;;13.60;;
31768;SDS011;18342;52.132;21.048;2022-11-14T00:51:28;26.00;;;14.17;;
31768;SDS011;18342;52.132;21.048;2022-11-14T00:53:54;24.10;;;13.03;;
31768;SDS011;18342;52.132;21.048;2022-11-14T00:56:20;23.53;;;13.13;;
31768;SDS011;18342;52.132;21.048;2022-11-14T00:58:45;28.47;;;13.37;;
31768;SDS011;18342;52.132;21.048;2022-11-14T01:01:11;23.13;;;13.67;;
31768;SDS011;18342;52.132;21.048;2022-11-14T01:03:37;22.40;;;12.53;;
31768;SDS011;18342;52.132;21.048;2022-11-14T01:06:04;26.87;;;13.43;;
31768;SDS011;18342;52.132;21.048;2022-11-14T01:08:31;22.40;;;12.97;;
31768;SDS011;18342;52.132;21.048;2022-11-14T01:10:57;23.33;;;13.23;;
31768;SDS011;18342;52.132;21.048;2022-11-14T01:13:24;23.87;;;12.50;;
31768;SDS011;18342;52.132;21.048;2022-11-14T01:15:51;22.10;;;12.07;;
31768;SDS011;18342;52.132;21.048;2022-11-14T01:18:19;26.93;;;12.70;;
31768;SDS011;18342;52.132;21.048;2022-11-14T01:20:46;23.40;;;12.47;;
31768;SDS011;18342;52.132;21.048;2022-11-14T01:23:13;19.90;;;12.10;;
31768;SDS011;18342;52.132;21.048;2022-11-14T01:25:41;23.60;;;12.70;;
31768;SDS011;18342;52.132;21.048;2022-11-14T01:28:08;23.80;;;13.17;;
31768;SDS011;18342;52.132;21.048;2022-11-14T01:30:39;24.07;;;12.60;;
31768;SDS011;18342;52.132;21.048;2022-11-14T01:33:05;25.13;;;12.33;;
31768;SDS011;18342;52.132;21.048;2022-11-14T01:35:31;21.73;;;11.80;;
31768;SDS011;18342;52.132;21.048;2022-11-14T01:37:58;21.03;;;12.17;;
31768;SDS011;18342;52.132;21.048;2022-11-14T01:40:24;22.00;;;12.10;;
31768;SDS011;18342;52.132;21.048;2022-11-14T01:51:15;21.00;;;12.40;;
31768;SDS011;18342;52.132;21.048;2022-11-14T01:53:42;19.67;;;11.90;;
31768;SDS011;18342;52.132;21.048;2022-11-14T01:56:10;22.37;;;12.93;;
31768;SDS011;18342;52.132;21.048;2022-11-14T01:58:41;26.40;;;12.97;;
31768;SDS011;18342;52.132;21.048;2022-11-14T02:01:11;23.70;;;13.10;;
31768;SDS011;18342;52.132;21.048;2022-11-14T02:03:38;22.23;;;13.20;;
31768;SDS011;18342;52.132;21.048;2022-11-14T02:06:06;26.37;;;13.27;;
31768;SDS011;18342;52.132;21.048;2022-11-14T02:08:35;27.17;;;14.82;;
31768;SDS011;18342;52.132;21.048;2022-11-14T02:11:01;22.53;;;13.10;;
31768;SDS011;18342;52.132;21.048;2022-11-14T02:13:26;26.50;;;14.13;;
31768;SDS011;18342;52.132;21.048;2022-11-14T02:15:52;23.90;;;13.03;;
31768;SDS011;18342;52.132;21.048;2022-11-14T02:18:18;24.43;;;14.43;;
31768;SDS011;18342;52.132;21.048;2022-11-14T02:20:44;25.13;;;14.80;;
31768;SDS011;18342;52.132;21.048;2022-11-14T02:23:10;28.10;;;14.50;;
31768;SDS011;18342;52.132;21.048;2022-11-14T02:25:37;24.50;;;13.93;;
31768;SDS011;18342;52.132;21.048;2022-11-14T02:28:04;28.27;;;14.83;;
31768;SDS011;18342;52.132;21.048;2022-11-14T02:30:33;24.70;;;14.10;;
31768;SDS011;18342;52.132;21.048;2022-11-14T02:32:59;26.97;;;15.07;;
31768;SDS011;18342;52.132;21.048;2022-11-14T02:35:25;27.77;;;15.50;;
31768;SDS011;18342;52.132;21.048;2022-11-14T02:37:50;25.13;;;14.67;;
31768;SDS011;18342;52.132;21.048;2022-11-14T02:40:16;26.13;;;15.33;;
31768;SDS011;18342;52.132;21.048;2022-11-14T02:42:42;26.07;;;15.93;;
31768;SDS011;18342;52.132;21.048;2022-11-14T02:45:08;30.07;;;16.37;;
31768;SDS011;18342;52.132;21.048;2022-11-14T02:47:35;31.87;;;17.10;;
31768;SDS011;18342;52.132;21.048;2022-11-14T02:50:01;30.73;;;16.70;;
31768;SDS011;18342;52.132;21.048;2022-11-14T02:52:27;26.80;;;15.57;;
31768;SDS011;18342;52.132;21.048;2022-11-14T02:54:52;27.93;;;15.77;;
31768;SDS011;18342;52.132;21.048;2022-11-14T02:57:18;26.07;;;15.30;;
31768;SDS011;18342;52.132;21.048;2022-11-14T02:59:44;26.90;;;15.30;;
31768;SDS011;18342;52.132;21.048;2022-11-14T03:02:09;31.33;;;16.60;;
31768;SDS011;18342;52.132;21.048;2022-11-14T03:04:35;27.27;;;15.70;;
31768;SDS011;18342;52.132;21.048;2022-11-14T03:07:00;22.70;;;14.40;;
31768;SDS011;18342;52.132;21.048;2022-11-14T03:09:26;27.40;;;15.83;;
31768;SDS011;18342;52.132;21.048;2022-11-14T03:11:52;27.27;;;15.20;;
31768;SDS011;18342;52.132;21.048;2022-11-14T03:14:17;27.43;;;15.77;;
31768;SDS011;18342;52.132;21.048;2022-11-14T03:16:43;27.87;;;16.37;;
31768;SDS011;18342;52.132;21.048;2022-11-14T03:19:09;24.40;;;14.67;;
31768;SDS011;18342;52.132;21.048;2022-11-14T03:21:34;26.63;;;15.03;;
31768;SDS011;18342;52.132;21.048;2022-11-14T03:24:00;21.97;;;13.53;;
31768;SDS011;18342;52.132;21.048;2022-11-14T03:26:26;22.93;;;13.33;;
31768;SDS011;18342;52.132;21.048;2022-11-14T03:28:51;24.53;;;13.57;;
31768;SDS011;18342;52.132;21.048;2022-11-14T03:31:19;19.10;;;12.33;;
31768;SDS011;18342;52.132;21.048;2022-11-14T03:33:45;22.53;;;13.13;;
31768;SDS011;18342;52.132;21.048;2022-11-14T03:36:11;23.87;;;12.53;;
31768;SDS011;18342;52.132;21.048;2022-11-14T03:38:36;18.87;;;11.90;;
31768;SDS011;18342;52.132;21.048;2022-11-14T03:41:02;25.43;;;12.47;;
31768;SDS011;18342;52.132;21.048;2022-11-14T03:43:31;19.77;;;12.30;;
31768;SDS011;18342;52.132;21.048;2022-11-14T03:45:58;20.63;;;11.53;;
31768;SDS011;18342;52.132;21.048;2022-11-14T03:48:25;18.37;;;10.73;;
31768;SDS011;18342;52.132;21.048;2022-11-14T03:50:51;19.13;;;11.30;;
31768;SDS011;18342;52.132;21.048;2022-11-14T03:53:17;18.57;;;11.93;;
31768;SDS011;18342;52.132;21.048;2022-11-14T03:55:42;19.37;;;12.03;;
31768;SDS011;18342;52.132;21.048;2022-11-14T03:58:08;19.23;;;11.20;;
31768;SDS011;18342;52.132;21.048;2022-11-14T04:00:34;20.90;;;10.33;;
31768;SDS011;18342;52.132;21.048;2022-11-14T04:03:00;19.03;;;11.63;;
31768;SDS011;18342;52.132;21.048;2022-11-14T04:05:26;18.43;;;11.43;;
31768;SDS011;18342;52.132;21.048;2022-11-14T04:07:51;19.33;;;10.70;;
31768;SDS011;18342;52.132;21.048;2022-11-14T04:10:17;21.10;;;11.83;;
31768;SDS011;18342;52.132;21.048;2022-11-14T04:12:46;18.83;;;10.67;;
31768;SDS011;18342;52.132;21.048;2022-11-14T04:15:13;17.77;;;11.27;;
31768;SDS011;18342;52.132;21.048;2022-11-14T04:17:39;19.20;;;10.80;;
31768;SDS011;18342;52.132;21.048;2022-11-14T04:20:05;16.77;;;10.73;;
31768;SDS011;18342;52.132;21.048;2022-11-14T04:22:31;15.97;;;10.47;;
31768;SDS011;18342;52.132;21.048;2022-11-14T04:24:56;16.40;;;10.07;;
31768;SDS011;18342;52.132;21.048;2022-11-14T04:27:22;22.83;;;11.63;;
31768;SDS011;18342;52.132;21.048;2022-11-14T04:29:48;16.20;;;10.70;;
31768;SDS011;18342;52.132;21.048;2022-11-14T04:32:13;17.80;;;10.23;;
31768;SDS011;18342;52.132;21.048;2022-11-14T04:34:39;15.90;;;10.73;;
31768;SDS011;18342;52.132;21.048;2022-11-14T04:37:05;12.43;;;8.73;;
31768;SDS011;18342;52.132;21.048;2022-11-14T04:39:30;15.67;;;9.60;;
31768;SDS011;18342;52.132;21.048;2022-11-14T04:41:56;14.10;;;8.70;;
31768;SDS011;18342;52.132;21.048;2022-11-14T04:44:22;14.20;;;8.60;;
31768;SDS011;18342;52.132;21.048;2022-11-14T04:46:47;13.30;;;9.70;;
31768;SDS011;18342;52.132;21.048;2022-11-14T04:49:13;13.80;;;9.43;;
31768;SDS011;18342;52.132;21.048;2022-11-14T04:51:38;13.07;;;9.23;;
31768;SDS011;18342;52.132;21.048;2022-11-14T04:54:04;14.43;;;8.97;;
31768;SDS011;18342;52.132;21.048;2022-11-14T04:56:30;14.57;;;9.83;;
31768;SDS011;18342;52.132;21.048;2022-11-14T04:58:55;16.27;;;9.97;;
31768;SDS011;18342;52.132;21.048;2022-11-14T05:01:21;16.17;;;10.37;;
31768;SDS011;18342;52.132;21.048;2022-11-14T05:03:47;18.63;;;10.67;;
31768;SDS011;18342;52.132;21.048;2022-11-14T05:06:12;18.10;;;10.17;;
31768;SDS011;18342;52.132;21.048;2022-11-14T05:08:38;17.23;;;10.03;;
31768;SDS011;18342;52.132;21.048;2022-11-14T05:11:04;15.47;;;9.50;;
31768;SDS011;18342;52.132;21.048;2022-11-14T05:13:29;16.27;;;9.80;;
31768;SDS011;18342;52.132;21.048;2022-11-14T05:15:59;15.63;;;9.10;;
31768;SDS011;18342;52.132;21.048;2022-11-14T05:18:25;13.50;;;9.23;;
31768;SDS011;18342;52.132;21.048;2022-11-14T05:20:51;13.93;;;8.90;;
31768;SDS011;18342;52.132;21.048;2022-11-14T05:23:20;15.07;;;9.17;;
31768;SDS011;18342;52.132;21.048;2022-11-14T05:25:52;12.70;;;9.10;;
31768;SDS011;18342;52.132;21.048;2022-11-14T05:28:30;14.37;;;9.77;;
31768;SDS011;18342;52.132;21.048;2022-11-14T05:31:00;13.40;;;8.83;;
31768;SDS011;18342;52.132;21.048;2022-11-14T05:33:34;14.77;;;9.23;;
31768;SDS011;18342;52.132;21.048;2022-11-14T05:36:00;12.37;;;7.97;;
31768;SDS011;18342;52.132;21.048;2022-11-14T05:38:30;13.93;;;7.60;;
31768;SDS011;18342;52.132;21.048;2022-11-14T05:40:56;13.17;;;8.43;;
31768;SDS011;18342;52.132;21.048;2022-11-14T05:43:22;11.77;;;7.40;;
31768;SDS011;18342;52.132;21.048;2022-11-14T05:45:48;13.73;;;8.37;;
31768;SDS011;18342;52.132;21.048;2022-11-14T05:48:14;12.63;;;8.07;;
31768;SDS011;18342;52.132;21.048;2022-11-14T05:50:40;14.17;;;7.73;;
31768;SDS011;18342;52.132;21.048;2022-11-14T05:53:05;12.13;;;7.67;;
31768;SDS011;18342;52.132;21.048;2022-11-14T05:55:31;13.67;;;8.00;;
31768;SDS011;18342;52.132;21.048;2022-11-14T05:57:57;14.13;;;7.47;;
31768;SDS011;18342;52.132;21.048;2022-11-14T06:00:23;12.20;;;7.93;;
31768;SDS011;18342;52.132;21.048;2022-11-14T06:02:51;14.57;;;8.43;;
31768;SDS011;18342;52.132;21.048;2022-11-14T06:05:18;15.33;;;7.80;;
31768;SDS011;18342;52.132;21.048;2022-11-14T06:07:45;12.00;;;7.40;;
31768;SDS011;18342;52.132;21.048;2022-11-14T06:10:11;12.23;;;7.77;;
31768;SDS011;18342;52.132;21.048;2022-11-14T06:12:37;14.17;;;8.20;;
31768;SDS011;18342;52.132;21.048;2022-11-14T06:15:03;11.57;;;8.03;;
31768;SDS011;18342;52.132;21.048;2022-11-14T06:17:29;12.33;;;7.87;;
31768;SDS011;18342;52.132;21.048;2022-11-14T06:19:55;12.87;;;8.07;;
31768;SDS011;18342;52.132;21.048;2022-11-14T06:22:21;13.03;;;8.07;;
31768;SDS011;18342;52.132;21.048;2022-11-14T06:24:47;12.63;;;8.13;;
31768;SDS011;18342;52.132;21.048;2022-11-14T06:27:12;12.03;;;8.53;;
31768;SDS011;18342;52.132;21.048;2022-11-14T06:29:38;16.07;;;9.10;;
31768;SDS011;18342;52.132;21.048;2022-11-14T06:32:04;13.37;;;8.57;;
31768;SDS011;18342;52.132;21.048;2022-11-14T06:34:29;13.47;;;8.20;;
31768;SDS011;18342;52.132;21.048;2022-11-14T06:36:55;15.30;;;8.60;;
31768;SDS011;18342;52.132;21.048;2022-11-14T06:39:21;15.67;;;8.90;;
31768;SDS011;18342;52.132;21.048;2022-11-14T06:41:46;14.37;;;8.67;;
31768;SDS011;18342;52.132;21.048;2022-11-14T06:44:12;13.17;;;8.77;;
31768;SDS011;18342;52.132;21.048;2022-11-14T06:46:39;15.50;;;8.80;;
31768;SDS011;18342;52.132;21.048;2022-11-14T06:49:04;14.93;;;8.97;;
31768;SDS011;18342;52.132;21.048;2022-11-14T06:51:30;16.40;;;9.30;;
31768;SDS011;18342;52.132;21.048;2022-11-14T06:53:56;15.97;;;8.70;;
31768;SDS011;18342;52.132;21.048;2022-11-14T06:56:22;14.80;;;9.23;;
31768;SDS011;18342;52.132;21.048;2022-11-14T06:58:48;16.90;;;10.03;;
31768;SDS011;18342;52.132;21.048;2022-11-14T07:03:47;15.17;;;9.27;;
31768;SDS011;18342;52.132;21.048;2022-11-14T07:06:14;13.57;;;8.33;;
31768;SDS011;18342;52.132;21.048;2022-11-14T07:08:41;15.03;;;8.20;;
31768;SDS011;18342;52.132;21.048;2022-11-14T07:11:11;13.40;;;8.40;;
31768;SDS011;18342;52.132;21.048;2022-11-14T07:13:51;15.00;;;8.60;;
31768;SDS011;18342;52.132;21.048;2022-11-14T07:16:18;12.40;;;6.70;;
31768;SDS011;18342;52.132;21.048;2022-11-14T07:18:44;12.30;;;8.23;;
31768;SDS011;18342;52.132;21.048;2022-11-14T07:21:10;13.53;;;7.90;;
31768;SDS011;18342;52.132;21.048;2022-11-14T07:23:38;12.33;;;7.43;;
31768;SDS011;18342;52.132;21.048;2022-11-14T07:26:06;10.17;;;6.90;;
31768;SDS011;18342;52.132;21.048;2022-11-14T07:28:33;10.23;;;6.70;;
31768;SDS011;18342;52.132;21.048;2022-11-14T07:31:03;9.82;;;6.95;;
31768;SDS011;18342;52.132;21.048;2022-11-14T07:33:30;10.13;;;6.00;;
31768;SDS011;18342;52.132;21.048;2022-11-14T07:35:57;8.70;;;5.77;;
31768;SDS011;18342;52.132;21.048;2022-11-14T07:38:22;9.53;;;5.93;;
31768;SDS011;18342;52.132;21.048;2022-11-14T07:41:08;8.97;;;5.77;;
31768;SDS011;18342;52.132;21.048;2022-11-14T07:43:39;10.23;;;5.87;;
31768;SDS011;18342;52.132;21.048;2022-11-14T07:46:06;9.17;;;5.57;;
31768;SDS011;18342;52.132;21.048;2022-11-14T07:48:34;7.00;;;5.50;;
31768;SDS011;18342;52.132;21.048;2022-11-14T07:51:01;8.63;;;5.33;;
31768;SDS011;18342;52.132;21.048;2022-11-14T07:53:28;9.33;;;5.70;;
31768;SDS011;18342;52.132;21.048;2022-11-14T07:55:54;7.47;;;5.43;;
31768;SDS011;18342;52.132;21.048;2022-11-14T07:58:21;7.93;;;5.63;;
31768;SDS011;18342;52.132;21.048;2022-11-14T08:00:46;9.17;;;5.53;;
31768;SDS011;18342;52.132;21.048;2022-11-14T08:03:12;7.43;;;5.23;;
31768;SDS011;18342;52.132;21.048;2022-11-14T08:05:38;6.70;;;4.93;;
31768;SDS011;18342;52.132;21.048;2022-11-14T08:08:04;7.13;;;4.97;;
31768;SDS011;18342;52.132;21.048;2022-11-14T08:10:29;8.90;;;5.07;;
31768;SDS011;18342;52.132;21.048;2022-11-14T08:12:59;9.47;;;4.97;;
31768;SDS011;18342;52.132;21.048;2022-11-14T08:15:26;8.80;;;5.10;;
31768;SDS011;18342;52.132;21.048;2022-11-14T08:17:52;7.10;;;4.83;;
31768;SDS011;18342;52.132;21.048;2022-11-14T08:20:22;8.60;;;5.10;;
31768;SDS011;18342;52.132;21.048;2022-11-14T08:22:47;9.53;;;5.50;;
31768;SDS011;18342;52.132;21.048;2022-11-14T08:25:13;9.13;;;5.63;;
31768;SDS011;18342;52.132;21.048;2022-11-14T08:27:39;8.67;;;5.47;;
31768;SDS011;18342;52.132;21.048;2022-11-14T08:30:05;7.93;;;4.80;;
31768;SDS011;18342;52.132;21.048;2022-11-14T08:32:31;6.53;;;4.30;;
31768;SDS011;18342;52.132;21.048;2022-11-14T08:34:57;6.60;;;4.63;;
31768;SDS011;18342;52.132;21.048;2022-11-14T08:37:22;7.53;;;4.67;;
31768;SDS011;18342;52.132;21.048;2022-11-14T08:39:48;6.63;;;4.63;;
31768;SDS011;18342;52.132;21.048;2022-11-14T08:42:14;7.63;;;6.07;;
31768;SDS011;18342;52.132;21.048;2022-11-14T08:44:39;8.33;;;6.70;;
31768;SDS011;18342;52.132;21.048;2022-11-14T08:47:05;9.30;;;6.40;;
31768;SDS011;18342;52.132;21.048;2022-11-14T08:49:31;7.87;;;6.30;;
31768;SDS011;18342;52.132;21.048;2022-11-14T08:51:56;7.83;;;6.27;;
31768;SDS011;18342;52.132;21.048;2022-11-14T08:54:22;8.50;;;6.13;;
31768;SDS011;18342;52.132;21.048;2022-11-14T08:56:48;8.30;;;6.47;;
31768;SDS011;18342;52.132;21.048;2022-11-14T08:59:13;10.10;;;6.80;;
31768;SDS011;18342;52.132;21.048;2022-11-14T09:01:39;10.47;;;7.50;;
31768;SDS011;18342;52.132;21.048;2022-11-14T09:04:05;11.13;;;7.53;;
31768;SDS011;18342;52.132;21.048;2022-11-14T09:06:30;10.93;;;7.20;;
31768;SDS011;18342;52.132;21.048;2022-11-14T09:08:56;9.50;;;7.27;;
31768;SDS011;18342;52.132;21.048;2022-11-14T09:11:22;12.37;;;7.37;;
31768;SDS011;18342;52.132;21.048;2022-11-14T09:13:48;8.47;;;7.33;;
31768;SDS011;18342;52.132;21.048;2022-11-14T09:16:13;9.27;;;7.13;;
31768;SDS011;18342;52.132;21.048;2022-11-14T09:18:39;8.40;;;6.27;;
31768;SDS011;18342;52.132;21.048;2022-11-14T09:21:06;10.27;;;7.50;;
31768;SDS011;18342;52.132;21.048;2022-11-14T09:23:33;9.97;;;6.83;;
31768;SDS011;18342;52.132;21.048;2022-11-14T09:26:03;11.77;;;7.70;;
31768;SDS011;18342;52.132;21.048;2022-11-14T09:28:30;12.93;;;7.57;;
31768;SDS011;18342;52.132;21.048;2022-11-14T09:31:02;11.50;;;8.17;;
31768;SDS011;18342;52.132;21.048;2022-11-14T09:33:30;10.17;;;7.30;;
31768;SDS011;18342;52.132;21.048;2022-11-14T09:36:00;8.77;;;6.90;;
31768;SDS011;18342;52.132;21.048;2022-11-14T09:38:28;9.83;;;7.53;;
31768;SDS011;18342;52.132;21.048;2022-11-14T09:46:42;9.33;;;6.47;;
31768;SDS011;18342;52.132;21.048;2022-11-14T09:49:22;10.33;;;7.17;;
31768;SDS011;18342;52.132;21.048;2022-11-14T09:51:58;10.03;;;8.00;;
31768;SDS011;18342;52.132;21.048;2022-11-14T09:54:33;14.13;;;8.23;;
31768;SDS011;18342;52.132;21.048;2022-11-14T09:57:08;11.80;;;8.13;;
31768;SDS011;18342;52.132;21.048;2022-11-14T09:59:39;13.27;;;7.63;;
31768;SDS011;18342;52.132;21.048;2022-11-14T10:02:11;9.43;;;7.07;;
31768;SDS011;18342;52.132;21.048;2022-11-14T10:07:49;8.73;;;6.07;;
31768;SDS011;18342;52.132;21.048;2022-11-14T10:27:02;9.83;;;6.60;;
31768;SDS011;18342;52.132;21.048;2022-11-14T10:29:51;11.13;;;7.03;;
31768;SDS011;18342;52.132;21.048;2022-11-14T10:38:18;16.50;;;10.53;;
31768;SDS011;18342;52.132;21.048;2022-11-14T10:45:50;12.60;;;8.50;;
31768;SDS011;18342;52.132;21.048;2022-11-14T10:48:30;11.30;;;7.80;;
31768;SDS011;18342;52.132;21.048;2022-11-14T10:51:06;10.67;;;7.23;;
31768;SDS011;18342;52.132;21.048;2022-11-14T10:53:50;13.30;;;7.43;;
31768;SDS011;18342;52.132;21.048;2022-11-14T10:56:26;10.30;;;7.03;;
31768;SDS011;18342;52.132;21.048;2022-11-14T10:58:52;9.50;;;6.73;;
31768;SDS011;18342;52.132;21.048;2022-11-14T11:04:13;13.83;;;6.93;;
31768;SDS011;18342;52.132;21.048;2022-11-14T11:06:49;10.67;;;6.80;;
31768;SDS011;18342;52.132;21.048;2022-11-14T11:09:18;9.87;;;6.33;;
31768;SDS011;18342;52.132;21.048;2022-11-14T11:12:04;8.43;;;5.83;;
31768;SDS011;18342;52.132;21.048;2022-11-14T11:14:31;7.47;;;5.40;;
31768;SDS011;18342;52.132;21.048;2022-11-14T11:19:36;5.80;;;4.33;;
31768;SDS011;18342;52.132;21.048;2022-11-14T11:22:03;6.13;;;4.60;;
31768;SDS011;18342;52.132;21.048;2022-11-14T11:24:30;6.37;;;4.67;;
31768;SDS011;18342;52.132;21.048;2022-11-14T11:29:39;8.63;;;5.20;;
31768;SDS011;18342;52.132;21.048;2022-11-14T11:32:06;7.93;;;5.90;;
31768;SDS011;18342;52.132;21.048;2022-11-14T11:34:32;11.17;;;6.57;;
31768;SDS011;18342;52.132;21.048;2022-11-14T11:37:03;10.77;;;7.30;;
31768;SDS011;18342;52.132;21.048;2022-11-14T11:39:48;10.20;;;6.13;;
31768;SDS011;18342;52.132;21.048;2022-11-14T11:42:30;8.50;;;6.40;;
31768;SDS011;18342;52.132;21.048;2022-11-14T11:45:03;9.10;;;6.60;;
31768;SDS011;18342;52.132;21.048;2022-11-14T11:47:36;9.43;;;6.77;;
31768;SDS011;18342;52.132;21.048;2022-11-14T11:50:10;11.37;;;7.70;;
31768;SDS011;18342;52.132;21.048;2022-11-14T11:55:28;13.57;;;9.93;;
31768;SDS011;18342;52.132;21.048;2022-11-14T12:00:36;31.03;;;18.10;;
31768;SDS011;18342;52.132;21.048;2022-11-14T12:03:03;30.93;;;18.10;;
31768;SDS011;18342;52.132;21.048;2022-11-14T12:08:03;30.67;;;18.20;;
31768;SDS011;18342;52.132;21.048;2022-11-14T12:10:35;27.97;;;17.17;;
31768;SDS011;18342;52.132;21.048;2022-11-14T12:30:17;45.97;;;21.93;;
31768;SDS011;18342;52.132;21.048;2022-11-14T12:33:00;54.67;;;24.07;;
31768;SDS011;18342;52.132;21.048;2022-11-14T12:35:36;51.40;;;23.13;;
31768;SDS011;18342;52.132;21.048;2022-11-14T12:38:13;49.17;;;21.93;;
31768;SDS011;18342;52.132;21.048;2022-11-14T12:40:50;52.43;;;22.97;;
31768;SDS011;18342;52.132;21.048;2022-11-14T12:48:22;51.00;;;20.03;;
31768;SDS011;18342;52.132;21.048;2022-11-14T12:50:55;49.87;;;21.83;;
31768;SDS011;18342;52.132;21.048;2022-11-14T12:58:36;48.90;;;19.93;;
31768;SDS011;18342;52.132;21.048;2022-11-14T13:01:30;47.97;;;21.63;;
31768;SDS011;18342;52.132;21.048;2022-11-14T13:09:29;38.67;;;19.73;;
31768;SDS011;18342;52.132;21.048;2022-11-14T13:11:56;41.30;;;20.53;;
31768;SDS011;18342;52.132;21.048;2022-11-14T13:14:50;38.50;;;20.27;;
31768;SDS011;18342;52.132;21.048;2022-11-14T13:17:36;39.07;;;20.90;;
31768;SDS011;18342;52.132;21.048;2022-11-14T13:20:31;35.33;;;19.87;;
31768;SDS011;18342;52.132;21.048;2022-11-14T13:26:34;38.77;;;21.40;;
31768;SDS011;18342;52.132;21.048;2022-11-14T13:28:44;43.30;;;21.73;;
31768;SDS011;18342;52.132;21.048;2022-11-14T13:36:53;50.53;;;23.67;;
31768;SDS011;18342;52.132;21.048;2022-11-14T13:41:45;43.90;;;21.93;;
31768;SDS011;18342;52.132;21.048;2022-11-14T13:44:35;40.17;;;22.23;;
31768;SDS011;18342;52.132;21.048;2022-11-14T13:50:17;42.37;;;22.60;;
31768;SDS011;18342;52.132;21.048;2022-11-14T13:52:53;41.27;;;22.07;;
31768;SDS011;18342;52.132;21.048;2022-11-14T13:55:54;45.63;;;22.90;;
31768;SDS011;18342;52.132;21.048;2022-11-14T14:01:26;36.67;;;20.43;;
31768;SDS011;18342;52.132;21.048;2022-11-14T14:18:05;23.60;;;14.37;;
31768;SDS011;18342;52.132;21.048;2022-11-14T14:20:56;18.27;;;11.93;;
31768;SDS011;18342;52.132;21.048;2022-11-14T14:25:58;17.47;;;12.13;;
31768;SDS011;18342;52.132;21.048;2022-11-14T14:28:56;18.37;;;12.10;;
31768;SDS011;18342;52.132;21.048;2022-11-14T14:31:24;23.90;;;14.50;;
31768;SDS011;18342;52.132;21.048;2022-11-14T14:34:00;20.90;;;12.53;;
31768;SDS011;18342;52.132;21.048;2022-11-14T14:36:27;19.17;;;11.27;;
31768;SDS011;18342;52.132;21.048;2022-11-14T14:41:43;17.20;;;10.80;;
31768;SDS011;18342;52.132;21.048;2022-11-14T14:47:14;14.73;;;10.20;;
31768;SDS011;18342;52.132;21.048;2022-11-14T14:50:03;14.27;;;9.67;;
31768;SDS011;18342;52.132;21.048;2022-11-14T14:52:37;16.00;;;10.40;;
31768;SDS011;18342;52.132;21.048;2022-11-14T14:55:03;12.20;;;9.20;;
31768;SDS011;18342;52.132;21.048;2022-11-14T14:57:30;15.80;;;10.63;;
31768;SDS011;18342;52.132;21.048;2022-11-14T15:02:26;15.30;;;9.57;;
31768;SDS011;18342;52.132;21.048;2022-11-14T15:04:53;21.13;;;12.43;;
31768;SDS011;18342;52.132;21.048;2022-11-14T15:07:21;16.23;;;10.57;;
31768;SDS011;18342;52.132;21.048;2022-11-14T15:12:22;15.37;;;10.27;;
31768;SDS011;18342;52.132;21.048;2022-11-14T15:14:51;17.07;;;11.07;;
31768;SDS011;18342;52.132;21.048;2022-11-14T15:17:18;16.37;;;10.80;;
31768;SDS011;18342;52.132;21.048;2022-11-14T15:19:45;17.63;;;11.00;;
31768;SDS011;18342;52.132;21.048;2022-11-14T15:24:40;26.20;;;10.93;;
31768;SDS011;18342;52.132;21.048;2022-11-14T15:27:13;18.17;;;11.27;;
31768;SDS011;18342;52.132;21.048;2022-11-14T15:29:44;16.33;;;10.33;;
31768;SDS011;18342;52.132;21.048;2022-11-14T15:32:16;16.80;;;10.73;;
31768;SDS011;18342;52.132;21.048;2022-11-14T15:34:56;14.70;;;9.97;;
31768;SDS011;18342;52.132;21.048;2022-11-14T15:37:32;18.20;;;10.60;;
31768;SDS011;18342;52.132;21.048;2022-11-14T15:40:17;16.83;;;10.67;;
31768;SDS011;18342;52.132;21.048;2022-11-14T15:42:44;17.50;;;10.27;;
31768;SDS011;18342;52.132;21.048;2022-11-14T15:45:37;17.03;;;10.77;;
31768;SDS011;18342;52.132;21.048;2022-11-14T15:48:10;19.40;;;11.17;;
31768;SDS011;18342;52.132;21.048;2022-11-14T15:50:39;16.13;;;11.40;;
31768;SDS011;18342;52.132;21.048;2022-11-14T15:53:13;17.43;;;11.00;;
31768;SDS011;18342;52.132;21.048;2022-11-14T15:55:46;15.13;;;10.63;;
31768;SDS011;18342;52.132;21.048;2022-11-14T15:58:11;17.37;;;10.53;;
31768;SDS011;18342;52.132;21.048;2022-11-14T16:00:43;16.20;;;10.83;;
31768;SDS011;18342;52.132;21.048;2022-11-14T16:03:14;16.17;;;10.17;;
31768;SDS011;18342;52.132;21.048;2022-11-14T16:05:45;18.60;;;10.90;;
31768;SDS011;18342;52.132;21.048;2022-11-14T16:08:11;16.37;;;11.13;;
31768;SDS011;18342;52.132;21.048;2022-11-14T16:10:37;18.57;;;10.60;;
31768;SDS011;18342;52.132;21.048;2022-11-14T16:13:04;15.57;;;10.43;;
31768;SDS011;18342;52.132;21.048;2022-11-14T16:15:30;21.53;;;11.20;;
31768;SDS011;18342;52.132;21.048;2022-11-14T16:17:56;16.70;;;10.47;;
31768;SDS011;18342;52.132;21.048;2022-11-14T16:20:22;18.10;;;11.67;;
31768;SDS011;18342;52.132;21.048;2022-11-14T16:22:50;17.83;;;11.03;;
31768;SDS011;18342;52.132;21.048;2022-11-14T16:25:23;17.43;;;11.13;;
31768;SDS011;18342;52.132;21.048;2022-11-14T16:27:51;18.23;;;11.20;;
31768;SDS011;18342;52.132;21.048;2022-11-14T16:30:18;17.80;;;11.00;;
31768;SDS011;18342;52.132;21.048;2022-11-14T16:32:45;17.50;;;10.77;;
31768;SDS011;18342;52.132;21.048;2022-11-14T16:37:39;19.47;;;11.83;;
31768;SDS011;18342;52.132;21.048;2022-11-14T16:40:05;16.40;;;10.93;;
31768;SDS011;18342;52.132;21.048;2022-11-14T16:42:35;18.17;;;10.90;;
31768;SDS011;18342;52.132;21.048;2022-11-14T16:45:01;17.37;;;11.00;;
31768;SDS011;18342;52.132;21.048;2022-11-14T16:47:27;17.17;;;10.63;;
31768;SDS011;18342;52.132;21.048;2022-11-14T16:49:55;18.57;;;11.17;;